KCLS/CLS METAR and TAF weather

Enter ICAO airport designator
Station Type Date Time Source
KCLS METAR 2022/01/29 11:15 UTC NOAA

KCLS 291115Z AUTO 23004KT 10SM CLR 00/M02 A3028 RMK AO2


Station Type Date Time Source
KCLS Decoded METAR 2022/01/29 11:15 UTC NOAA

Station name not available
Jan 29, 2022 - 06:15 AM EST / 2022.01.29 1115 UTC
Wind: from the SW (230 degrees) at 5 MPH (4 KT):0
Visibility: 10 mile(s):0
Sky conditions: clear
Temperature: 32 F (0 C)
Windchill: 26 F (-3 C):1
Dew Point: 28 F (-2 C)
Relative Humidity: 86%
Pressure (altimeter): 30.28 in. Hg (1025 hPa)
ob: KCLS 291115Z AUTO 23004KT 10SM CLR 00/M02 A3028 RMK AO2
cycle: 11

Station Type Date Time Source
KCLS TAF UTC NOAA

Error!

Example: see airport list